sensor_id;sensor_type;location;lat;lon;timestamp;temperature;humidity
32698;DHT22;19087;51.062;3.754;2024-01-27T00:00:34;5.20;99.90
32698;DHT22;19087;51.062;3.754;2024-01-27T00:03:00;5.00;99.90
32698;DHT22;19087;51.062;3.754;2024-01-27T00:05:26;5.00;99.90
32698;DHT22;19087;51.062;3.754;2024-01-27T00:07:52;4.90;99.90
32698;DHT22;19087;51.062;3.754;2024-01-27T00:10:18;4.90;99.90
32698;DHT22;19087;51.062;3.754;2024-01-27T00:12:45;4.90;99.90
32698;DHT22;19087;51.062;3.754;2024-01-27T00:15:11;4.80;99.90
32698;DHT22;19087;51.062;3.754;2024-01-27T00:17:37;4.90;99.90
32698;DHT22;19087;51.062;3.754;2024-01-27T00:20:04;5.10;99.90
32698;DHT22;19087;51.062;3.754;2024-01-27T00:22:30;5.10;99.90
32698;DHT22;19087;51.062;3.754;2024-01-27T00:24:56;5.00;99.90
32698;DHT22;19087;51.062;3.754;2024-01-27T00:27:25;4.80;99.90
32698;DHT22;19087;51.062;3.754;2024-01-27T00:29:51;4.80;99.90
32698;DHT22;19087;51.062;3.754;2024-01-27T00:32:26;4.80;99.90
32698;DHT22;19087;51.062;3.754;2024-01-27T00:34:58;4.80;99.90
32698;DHT22;19087;51.062;3.754;2024-01-27T00:37:25;4.70;99.90
32698;DHT22;19087;51.062;3.754;2024-01-27T00:39:51;4.70;99.90
32698;DHT22;19087;51.062;3.754;2024-01-27T00:42:17;4.80;99.90
32698;DHT22;19087;51.062;3.754;2024-01-27T00:44:52;5.00;99.90
32698;DHT22;19087;51.062;3.754;2024-01-27T00:47:18;5.00;99.90
32698;DHT22;19087;51.062;3.754;2024-01-27T00:49:43;4.90;99.90
32698;DHT22;19087;51.062;3.754;2024-01-27T00:52:09;4.90;99.90
32698;DHT22;19087;51.062;3.754;2024-01-27T00:54:35;4.90;99.90
32698;DHT22;19087;51.062;3.754;2024-01-27T00:57:03;4.80;99.90
32698;DHT22;19087;51.062;3.754;2024-01-27T00:59:30;4.80;99.90
32698;DHT22;19087;51.062;3.754;2024-01-27T01:01:56;4.90;99.90
32698;DHT22;19087;51.062;3.754;2024-01-27T01:04:22;4.80;99.90
32698;DHT22;19087;51.062;3.754;2024-01-27T01:06:48;4.70;99.90
32698;DHT22;19087;51.062;3.754;2024-01-27T01:09:19;4.70;99.90
32698;DHT22;19087;51.062;3.754;2024-01-27T01:11:48;4.70;99.90
32698;DHT22;19087;51.062;3.754;2024-01-27T01:14:17;4.70;99.90
32698;DHT22;19087;51.062;3.754;2024-01-27T01:16:45;4.80;99.90
32698;DHT22;19087;51.062;3.754;2024-01-27T01:19:10;4.70;99.90
32698;DHT22;19087;51.062;3.754;2024-01-27T01:21:37;4.50;99.90
32698;DHT22;19087;51.062;3.754;2024-01-27T01:24:09;4.50;99.90
32698;DHT22;19087;51.062;3.754;2024-01-27T01:26:47;4.50;99.90
32698;DHT22;19087;51.062;3.754;2024-01-27T01:29:13;4.50;99.90
32698;DHT22;19087;51.062;3.754;2024-01-27T01:31:42;4.50;99.90
32698;DHT22;19087;51.062;3.754;2024-01-27T01:34:09;4.50;99.90
32698;DHT22;19087;51.062;3.754;2024-01-27T01:36:35;4.50;99.90
32698;DHT22;19087;51.062;3.754;2024-01-27T01:39:03;4.50;99.90
32698;DHT22;19087;51.062;3.754;2024-01-27T01:41:29;4.50;99.90
32698;DHT22;19087;51.062;3.754;2024-01-27T01:43:54;4.50;99.90
32698;DHT22;19087;51.062;3.754;2024-01-27T01:46:23;4.50;99.90
32698;DHT22;19087;51.062;3.754;2024-01-27T01:48:49;4.60;99.90
32698;DHT22;19087;51.062;3.754;2024-01-27T01:51:17;4.60;99.90
32698;DHT22;19087;51.062;3.754;2024-01-27T01:53:48;4.60;99.90
32698;DHT22;19087;51.062;3.754;2024-01-27T01:56:15;4.70;99.90
32698;DHT22;19087;51.062;3.754;2024-01-27T01:58:42;4.80;99.90
32698;DHT22;19087;51.062;3.754;2024-01-27T02:01:10;4.80;99.90
32698;DHT22;19087;51.062;3.754;2024-01-27T02:03:37;4.70;99.90
32698;DHT22;19087;51.062;3.754;2024-01-27T02:06:03;4.50;99.90
32698;DHT22;19087;51.062;3.754;2024-01-27T02:08:29;4.50;99.90
32698;DHT22;19087;51.062;3.754;2024-01-27T02:10:56;4.50;99.90
32698;DHT22;19087;51.062;3.754;2024-01-27T02:13:26;4.50;99.90
32698;DHT22;19087;51.062;3.754;2024-01-27T02:16:00;4.50;99.90
32698;DHT22;19087;51.062;3.754;2024-01-27T02:18:25;4.70;99.90
32698;DHT22;19087;51.062;3.754;2024-01-27T02:20:51;4.70;99.90
32698;DHT22;19087;51.062;3.754;2024-01-27T02:23:17;4.50;99.90
32698;DHT22;19087;51.062;3.754;2024-01-27T02:25:44;4.40;99.90
32698;DHT22;19087;51.062;3.754;2024-01-27T02:28:09;4.20;99.90
32698;DHT22;19087;51.062;3.754;2024-01-27T02:30:37;4.20;99.90
32698;DHT22;19087;51.062;3.754;2024-01-27T02:33:02;4.20;99.90
32698;DHT22;19087;51.062;3.754;2024-01-27T02:35:28;4.30;99.90
32698;DHT22;19087;51.062;3.754;2024-01-27T02:37:54;4.30;99.90
32698;DHT22;19087;51.062;3.754;2024-01-27T02:40:20;4.30;99.90
32698;DHT22;19087;51.062;3.754;2024-01-27T02:42:46;4.30;99.90
32698;DHT22;19087;51.062;3.754;2024-01-27T02:45:12;4.20;99.90
32698;DHT22;19087;51.062;3.754;2024-01-27T02:47:42;4.20;99.90
32698;DHT22;19087;51.062;3.754;2024-01-27T02:50:18;4.10;99.90
32698;DHT22;19087;51.062;3.754;2024-01-27T02:52:53;4.00;99.90
32698;DHT22;19087;51.062;3.754;2024-01-27T02:55:19;4.00;99.90
32698;DHT22;19087;51.062;3.754;2024-01-27T02:57:46;4.00;99.90
32698;DHT22;19087;51.062;3.754;2024-01-27T03:03:37;3.90;99.90
32698;DHT22;19087;51.062;3.754;2024-01-27T03:06:02;3.90;99.90
32698;DHT22;19087;51.062;3.754;2024-01-27T03:08:30;3.80;99.90
32698;DHT22;19087;51.062;3.754;2024-01-27T03:10:57;3.90;99.90
32698;DHT22;19087;51.062;3.754;2024-01-27T03:13:24;3.90;99.90
32698;DHT22;19087;51.062;3.754;2024-01-27T03:15:49;3.80;99.90
32698;DHT22;19087;51.062;3.754;2024-01-27T03:18:15;3.80;99.90
32698;DHT22;19087;51.062;3.754;2024-01-27T03:20:41;3.80;99.90
32698;DHT22;19087;51.062;3.754;2024-01-27T03:23:07;3.80;99.90
32698;DHT22;19087;51.062;3.754;2024-01-27T03:25:34;3.80;99.90
32698;DHT22;19087;51.062;3.754;2024-01-27T03:28:00;3.80;99.90
32698;DHT22;19087;51.062;3.754;2024-01-27T03:30:26;3.70;99.90
32698;DHT22;19087;51.062;3.754;2024-01-27T03:32:52;3.70;99.90
32698;DHT22;19087;51.062;3.754;2024-01-27T03:35:19;3.70;99.90
32698;DHT22;19087;51.062;3.754;2024-01-27T03:37:44;3.80;99.90
32698;DHT22;19087;51.062;3.754;2024-01-27T03:40:11;3.70;99.90
32698;DHT22;19087;51.062;3.754;2024-01-27T03:42:41;3.60;99.90
32698;DHT22;19087;51.062;3.754;2024-01-27T03:45:07;3.50;99.90
32698;DHT22;19087;51.062;3.754;2024-01-27T03:47:33;3.50;99.90
32698;DHT22;19087;51.062;3.754;2024-01-27T03:49:58;3.40;99.90
32698;DHT22;19087;51.062;3.754;2024-01-27T03:52:24;3.40;99.90
32698;DHT22;19087;51.062;3.754;2024-01-27T03:54:50;3.70;99.90
32698;DHT22;19087;51.062;3.754;2024-01-27T03:57:18;3.70;99.90
32698;DHT22;19087;51.062;3.754;2024-01-27T03:59:44;3.60;99.90
32698;DHT22;19087;51.062;3.754;2024-01-27T04:02:09;3.60;99.90
32698;DHT22;19087;51.062;3.754;2024-01-27T04:04:37;3.50;99.90
32698;DHT22;19087;51.062;3.754;2024-01-27T04:07:04;3.50;99.90
32698;DHT22;19087;51.062;3.754;2024-01-27T04:09:31;3.70;99.90
32698;DHT22;19087;51.062;3.754;2024-01-27T04:11:57;3.80;99.90
32698;DHT22;19087;51.062;3.754;2024-01-27T04:14:23;3.80;99.90
32698;DHT22;19087;51.062;3.754;2024-01-27T04:16:48;3.80;99.90
32698;DHT22;19087;51.062;3.754;2024-01-27T04:19:15;3.70;99.90
32698;DHT22;19087;51.062;3.754;2024-01-27T04:21:41;3.60;99.90
32698;DHT22;19087;51.062;3.754;2024-01-27T04:24:08;3.60;99.90
32698;DHT22;19087;51.062;3.754;2024-01-27T04:26:35;3.60;99.90
32698;DHT22;19087;51.062;3.754;2024-01-27T04:29:01;3.60;99.90
32698;DHT22;19087;51.062;3.754;2024-01-27T04:31:28;3.60;99.90
32698;DHT22;19087;51.062;3.754;2024-01-27T04:33:53;3.60;99.90
32698;DHT22;19087;51.062;3.754;2024-01-27T04:36:28;3.60;99.90
32698;DHT22;19087;51.062;3.754;2024-01-27T04:38:55;3.60;99.90
32698;DHT22;19087;51.062;3.754;2024-01-27T04:41:24;3.50;99.90
32698;DHT22;19087;51.062;3.754;2024-01-27T04:43:56;3.50;99.90
32698;DHT22;19087;51.062;3.754;2024-01-27T04:46:22;3.50;99.90
32698;DHT22;19087;51.062;3.754;2024-01-27T04:48:49;3.50;99.90
32698;DHT22;19087;51.062;3.754;2024-01-27T04:51:33;3.50;99.90
32698;DHT22;19087;51.062;3.754;2024-01-27T04:54:02;3.50;99.90
32698;DHT22;19087;51.062;3.754;2024-01-27T04:56:33;3.40;99.90
32698;DHT22;19087;51.062;3.754;2024-01-27T04:58:59;3.50;99.90
32698;DHT22;19087;51.062;3.754;2024-01-27T05:01:25;3.60;99.90
32698;DHT22;19087;51.062;3.754;2024-01-27T05:03:52;3.70;99.90
32698;DHT22;19087;51.062;3.754;2024-01-27T05:06:18;3.70;99.90
32698;DHT22;19087;51.062;3.754;2024-01-27T05:08:45;3.70;99.90
32698;DHT22;19087;51.062;3.754;2024-01-27T05:11:11;3.60;99.90
32698;DHT22;19087;51.062;3.754;2024-01-27T05:13:40;3.50;99.90
32698;DHT22;19087;51.062;3.754;2024-01-27T05:16:08;3.50;99.90
32698;DHT22;19087;51.062;3.754;2024-01-27T05:18:33;3.60;99.90
32698;DHT22;19087;51.062;3.754;2024-01-27T05:20:59;3.60;99.90
32698;DHT22;19087;51.062;3.754;2024-01-27T05:23:25;3.50;99.90
32698;DHT22;19087;51.062;3.754;2024-01-27T05:25:51;3.40;99.90
32698;DHT22;19087;51.062;3.754;2024-01-27T05:28:17;3.30;99.90
32698;DHT22;19087;51.062;3.754;2024-01-27T05:30:43;3.40;99.90
32698;DHT22;19087;51.062;3.754;2024-01-27T05:33:09;3.40;99.90
32698;DHT22;19087;51.062;3.754;2024-01-27T05:35:34;3.30;99.90
32698;DHT22;19087;51.062;3.754;2024-01-27T05:38:00;3.30;99.90
32698;DHT22;19087;51.062;3.754;2024-01-27T05:40:26;3.50;99.90
32698;DHT22;19087;51.062;3.754;2024-01-27T05:42:52;3.80;99.90
32698;DHT22;19087;51.062;3.754;2024-01-27T05:45:20;3.70;99.90
32698;DHT22;19087;51.062;3.754;2024-01-27T05:47:45;3.60;99.90
32698;DHT22;19087;51.062;3.754;2024-01-27T05:50:12;3.50;99.90
32698;DHT22;19087;51.062;3.754;2024-01-27T05:52:38;3.40;99.90
32698;DHT22;19087;51.062;3.754;2024-01-27T05:55:04;3.50;99.90
32698;DHT22;19087;51.062;3.754;2024-01-27T05:57:32;3.70;99.90
32698;DHT22;19087;51.062;3.754;2024-01-27T05:59:58;3.80;99.90
32698;DHT22;19087;51.062;3.754;2024-01-27T06:02:23;3.70;99.90
32698;DHT22;19087;51.062;3.754;2024-01-27T06:04:49;3.50;99.90
32698;DHT22;19087;51.062;3.754;2024-01-27T06:07:16;3.50;99.90
32698;DHT22;19087;51.062;3.754;2024-01-27T06:09:41;3.50;99.90
32698;DHT22;19087;51.062;3.754;2024-01-27T06:12:08;3.50;99.90
32698;DHT22;19087;51.062;3.754;2024-01-27T06:14:34;3.50;99.90
32698;DHT22;19087;51.062;3.754;2024-01-27T06:17:03;3.50;99.90
32698;DHT22;19087;51.062;3.754;2024-01-27T06:19:30;3.60;99.90
32698;DHT22;19087;51.062;3.754;2024-01-27T06:21:56;3.70;99.90
32698;DHT22;19087;51.062;3.754;2024-01-27T06:24:22;3.70;99.90
32698;DHT22;19087;51.062;3.754;2024-01-27T06:26:48;3.90;99.90
32698;DHT22;19087;51.062;3.754;2024-01-27T06:29:14;4.00;99.90
32698;DHT22;19087;51.062;3.754;2024-01-27T06:31:41;3.80;99.90
32698;DHT22;19087;51.062;3.754;2024-01-27T06:34:07;3.70;99.90
32698;DHT22;19087;51.062;3.754;2024-01-27T06:36:34;3.70;99.90
32698;DHT22;19087;51.062;3.754;2024-01-27T06:39:00;3.50;99.90
32698;DHT22;19087;51.062;3.754;2024-01-27T06:41:26;3.50;99.90
32698;DHT22;19087;51.062;3.754;2024-01-27T06:43:51;3.50;99.90
32698;DHT22;19087;51.062;3.754;2024-01-27T06:46:17;3.50;99.90
32698;DHT22;19087;51.062;3.754;2024-01-27T06:48:43;3.40;99.90
32698;DHT22;19087;51.062;3.754;2024-01-27T06:51:11;3.40;99.90
32698;DHT22;19087;51.062;3.754;2024-01-27T06:53:39;3.30;99.90
32698;DHT22;19087;51.062;3.754;2024-01-27T06:56:05;3.30;99.90
32698;DHT22;19087;51.062;3.754;2024-01-27T06:58:32;3.20;99.90
32698;DHT22;19087;51.062;3.754;2024-01-27T07:00:58;3.20;99.90
32698;DHT22;19087;51.062;3.754;2024-01-27T07:03:27;3.20;99.90
32698;DHT22;19087;51.062;3.754;2024-01-27T07:05:59;3.10;99.90
32698;DHT22;19087;51.062;3.754;2024-01-27T07:08:30;3.20;99.90
32698;DHT22;19087;51.062;3.754;2024-01-27T07:11:04;3.20;99.90
32698;DHT22;19087;51.062;3.754;2024-01-27T07:13:30;3.30;99.90
32698;DHT22;19087;51.062;3.754;2024-01-27T07:15:56;3.20;99.90
32698;DHT22;19087;51.062;3.754;2024-01-27T07:18:24;3.10;99.90
32698;DHT22;19087;51.062;3.754;2024-01-27T07:20:50;3.10;99.90
32698;DHT22;19087;51.062;3.754;2024-01-27T07:23:20;3.10;99.90
32698;DHT22;19087;51.062;3.754;2024-01-27T07:25:48;3.10;99.90
32698;DHT22;19087;51.062;3.754;2024-01-27T07:28:14;3.10;99.90
32698;DHT22;19087;51.062;3.754;2024-01-27T07:30:42;3.10;99.90
32698;DHT22;19087;51.062;3.754;2024-01-27T07:33:08;3.20;99.90
32698;DHT22;19087;51.062;3.754;2024-01-27T07:35:34;3.20;99.90
32698;DHT22;19087;51.062;3.754;2024-01-27T07:38:02;3.20;99.90
32698;DHT22;19087;51.062;3.754;2024-01-27T07:40:28;3.10;99.90
32698;DHT22;19087;51.062;3.754;2024-01-27T07:42:54;3.10;99.90
32698;DHT22;19087;51.062;3.754;2024-01-27T07:45:20;3.10;99.90
32698;DHT22;19087;51.062;3.754;2024-01-27T07:47:45;3.10;99.90
32698;DHT22;19087;51.062;3.754;2024-01-27T07:50:11;3.10;99.90
32698;DHT22;19087;51.062;3.754;2024-01-27T07:52:37;3.10;99.90
32698;DHT22;19087;51.062;3.754;2024-01-27T07:55:03;3.20;99.90
32698;DHT22;19087;51.062;3.754;2024-01-27T07:57:29;3.20;99.90
32698;DHT22;19087;51.062;3.754;2024-01-27T07:59:55;3.10;99.90
32698;DHT22;19087;51.062;3.754;2024-01-27T08:02:20;3.10;99.90
32698;DHT22;19087;51.062;3.754;2024-01-27T08:04:46;3.20;99.90
32698;DHT22;19087;51.062;3.754;2024-01-27T08:07:13;3.20;99.90
32698;DHT22;19087;51.062;3.754;2024-01-27T08:09:41;3.20;99.90
32698;DHT22;19087;51.062;3.754;2024-01-27T08:12:07;3.20;99.90
32698;DHT22;19087;51.062;3.754;2024-01-27T08:14:33;3.20;99.90
32698;DHT22;19087;51.062;3.754;2024-01-27T08:17:01;3.30;99.90
32698;DHT22;19087;51.062;3.754;2024-01-27T08:19:29;3.30;99.90
32698;DHT22;19087;51.062;3.754;2024-01-27T08:21:55;3.40;99.90
32698;DHT22;19087;51.062;3.754;2024-01-27T08:24:20;3.50;99.90
32698;DHT22;19087;51.062;3.754;2024-01-27T08:26:48;3.70;99.90
32698;DHT22;19087;51.062;3.754;2024-01-27T08:29:15;3.90;99.90
32698;DHT22;19087;51.062;3.754;2024-01-27T08:31:41;3.90;99.90
32698;DHT22;19087;51.062;3.754;2024-01-27T08:34:07;3.80;99.90
32698;DHT22;19087;51.062;3.754;2024-01-27T08:36:34;3.80;99.90
32698;DHT22;19087;51.062;3.754;2024-01-27T08:39:08;3.90;99.90
32698;DHT22;19087;51.062;3.754;2024-01-27T08:41:36;4.00;99.90
32698;DHT22;19087;51.062;3.754;2024-01-27T08:44:03;4.30;99.90
32698;DHT22;19087;51.062;3.754;2024-01-27T08:46:30;4.40;99.90
32698;DHT22;19087;51.062;3.754;2024-01-27T08:48:55;4.40;99.90
32698;DHT22;19087;51.062;3.754;2024-01-27T08:51:21;4.50;99.90
32698;DHT22;19087;51.062;3.754;2024-01-27T08:53:47;4.30;99.90
32698;DHT22;19087;51.062;3.754;2024-01-27T08:56:16;4.40;99.90
32698;DHT22;19087;51.062;3.754;2024-01-27T08:58:43;4.40;99.90
32698;DHT22;19087;51.062;3.754;2024-01-27T09:01:15;4.40;99.90
32698;DHT22;19087;51.062;3.754;2024-01-27T09:03:42;4.40;99.90
32698;DHT22;19087;51.062;3.754;2024-01-27T09:06:08;4.50;99.90
32698;DHT22;19087;51.062;3.754;2024-01-27T09:08:34;4.50;99.90
32698;DHT22;19087;51.062;3.754;2024-01-27T09:11:02;4.50;99.90
32698;DHT22;19087;51.062;3.754;2024-01-27T09:13:29;4.50;99.90
32698;DHT22;19087;51.062;3.754;2024-01-27T09:15:59;4.50;99.90
32698;DHT22;19087;51.062;3.754;2024-01-27T09:18:26;4.50;99.90
32698;DHT22;19087;51.062;3.754;2024-01-27T09:20:52;4.60;99.90
32698;DHT22;19087;51.062;3.754;2024-01-27T09:23:18;4.60;99.90
32698;DHT22;19087;51.062;3.754;2024-01-27T09:25:44;4.70;99.90
32698;DHT22;19087;51.062;3.754;2024-01-27T09:28:10;4.70;99.90
32698;DHT22;19087;51.062;3.754;2024-01-27T09:30:38;4.80;99.90
32698;DHT22;19087;51.062;3.754;2024-01-27T09:33:05;4.90;99.90
32698;DHT22;19087;51.062;3.754;2024-01-27T09:35:32;5.10;99.90
32698;DHT22;19087;51.062;3.754;2024-01-27T09:37:58;5.30;99.90
32698;DHT22;19087;51.062;3.754;2024-01-27T09:40:24;5.40;99.90
32698;DHT22;19087;51.062;3.754;2024-01-27T09:42:51;5.50;99.90
32698;DHT22;19087;51.062;3.754;2024-01-27T09:45:19;5.80;99.90
32698;DHT22;19087;51.062;3.754;2024-01-27T09:47:47;5.70;99.90
32698;DHT22;19087;51.062;3.754;2024-01-27T09:50:17;5.80;99.90
32698;DHT22;19087;51.062;3.754;2024-01-27T09:52:46;5.80;99.90
32698;DHT22;19087;51.062;3.754;2024-01-27T09:55:12;5.90;99.90
32698;DHT22;19087;51.062;3.754;2024-01-27T09:57:38;6.00;99.90
32698;DHT22;19087;51.062;3.754;2024-01-27T10:00:07;6.00;99.90
32698;DHT22;19087;51.062;3.754;2024-01-27T10:02:36;6.10;99.90
32698;DHT22;19087;51.062;3.754;2024-01-27T10:05:07;6.20;99.90
32698;DHT22;19087;51.062;3.754;2024-01-27T10:07:35;6.30;99.90
32698;DHT22;19087;51.062;3.754;2024-01-27T10:10:01;6.40;99.90
32698;DHT22;19087;51.062;3.754;2024-01-27T10:12:29;6.40;99.90
32698;DHT22;19087;51.062;3.754;2024-01-27T10:14:55;6.50;99.90
32698;DHT22;19087;51.062;3.754;2024-01-27T10:17:22;6.60;99.90
32698;DHT22;19087;51.062;3.754;2024-01-27T10:20:09;6.60;99.90
32698;DHT22;19087;51.062;3.754;2024-01-27T10:22:39;6.70;99.90
32698;DHT22;19087;51.062;3.754;2024-01-27T10:25:06;6.90;99.90
32698;DHT22;19087;51.062;3.754;2024-01-27T10:27:34;7.10;99.90
32698;DHT22;19087;51.062;3.754;2024-01-27T10:30:02;7.20;99.90
32698;DHT22;19087;51.062;3.754;2024-01-27T10:32:29;7.50;99.90
32698;DHT22;19087;51.062;3.754;2024-01-27T10:35:21;7.60;99.90
32698;DHT22;19087;51.062;3.754;2024-01-27T10:37:51;7.40;99.90
32698;DHT22;19087;51.062;3.754;2024-01-27T10:40:19;7.20;99.90
32698;DHT22;19087;51.062;3.754;2024-01-27T10:42:45;7.20;99.90
32698;DHT22;19087;51.062;3.754;2024-01-27T10:45:15;7.10;99.90
32698;DHT22;19087;51.062;3.754;2024-01-27T10:47:42;7.10;99.90
32698;DHT22;19087;51.062;3.754;2024-01-27T10:50:09;7.10;99.90
32698;DHT22;19087;51.062;3.754;2024-01-27T10:52:38;7.20;99.90
32698;DHT22;19087;51.062;3.754;2024-01-27T10:55:12;7.40;99.90
32698;DHT22;19087;51.062;3.754;2024-01-27T10:57:40;7.30;99.90
32698;DHT22;19087;51.062;3.754;2024-01-27T11:00:07;7.30;99.90
32698;DHT22;19087;51.062;3.754;2024-01-27T11:02:35;7.30;99.90
32698;DHT22;19087;51.062;3.754;2024-01-27T11:05:05;7.40;99.90
32698;DHT22;19087;51.062;3.754;2024-01-27T11:07:39;7.60;99.90
32698;DHT22;19087;51.062;3.754;2024-01-27T11:10:07;7.70;99.90
32698;DHT22;19087;51.062;3.754;2024-01-27T11:12:34;7.90;99.90
32698;DHT22;19087;51.062;3.754;2024-01-27T11:15:01;8.20;99.90
32698;DHT22;19087;51.062;3.754;2024-01-27T11:17:41;8.40;99.90
32698;DHT22;19087;51.062;3.754;2024-01-27T11:20:08;8.50;99.90
32698;DHT22;19087;51.062;3.754;2024-01-27T11:22:37;8.40;99.90
32698;DHT22;19087;51.062;3.754;2024-01-27T11:25:17;8.30;99.90
32698;DHT22;19087;51.062;3.754;2024-01-27T11:27:44;8.00;99.90
32698;DHT22;19087;51.062;3.754;2024-01-27T11:30:27;8.00;99.90
32698;DHT22;19087;51.062;3.754;2024-01-27T11:32:57;8.20;99.90
32698;DHT22;19087;51.062;3.754;2024-01-27T11:35:25;8.20;99.90
32698;DHT22;19087;51.062;3.754;2024-01-27T11:37:51;8.30;99.90
32698;DHT22;19087;51.062;3.754;2024-01-27T11:40:16;8.60;99.90
32698;DHT22;19087;51.062;3.754;2024-01-27T11:42:43;8.80;99.90
32698;DHT22;19087;51.062;3.754;2024-01-27T11:45:09;8.70;99.90
32698;DHT22;19087;51.062;3.754;2024-01-27T11:47:35;8.70;99.90
32698;DHT22;19087;51.062;3.754;2024-01-27T11:50:02;8.80;99.90
32698;DHT22;19087;51.062;3.754;2024-01-27T11:52:29;8.70;99.90
32698;DHT22;19087;51.062;3.754;2024-01-27T11:54:56;8.80;99.90
32698;DHT22;19087;51.062;3.754;2024-01-27T11:57:22;9.10;99.90
32698;DHT22;19087;51.062;3.754;2024-01-27T11:59:53;9.60;99.90
32698;DHT22;19087;51.062;3.754;2024-01-27T12:02:19;9.80;99.90
32698;DHT22;19087;51.062;3.754;2024-01-27T12:04:46;9.90;99.90
32698;DHT22;19087;51.062;3.754;2024-01-27T12:07:13;10.20;99.90
32698;DHT22;19087;51.062;3.754;2024-01-27T12:09:39;10.10;99.90
32698;DHT22;19087;51.062;3.754;2024-01-27T12:12:05;10.00;99.90
32698;DHT22;19087;51.062;3.754;2024-01-27T12:14:46;9.80;99.90
32698;DHT22;19087;51.062;3.754;2024-01-27T12:17:17;9.90;99.90
32698;DHT22;19087;51.062;3.754;2024-01-27T12:19:50;10.20;99.90
32698;DHT22;19087;51.062;3.754;2024-01-27T12:22:26;10.40;99.90
32698;DHT22;19087;51.062;3.754;2024-01-27T12:24:53;10.50;99.90
32698;DHT22;19087;51.062;3.754;2024-01-27T12:27:19;10.70;99.90
32698;DHT22;19087;51.062;3.754;2024-01-27T12:29:48;10.40;99.90
32698;DHT22;19087;51.062;3.754;2024-01-27T12:32:15;10.60;99.90
32698;DHT22;19087;51.062;3.754;2024-01-27T12:34:42;10.50;99.90
32698;DHT22;19087;51.062;3.754;2024-01-27T12:37:11;10.90;99.90
32698;DHT22;19087;51.062;3.754;2024-01-27T12:39:44;11.20;99.90
32698;DHT22;19087;51.062;3.754;2024-01-27T12:42:17;11.20;99.90
32698;DHT22;19087;51.062;3.754;2024-01-27T12:44:43;11.10;99.90
32698;DHT22;19087;51.062;3.754;2024-01-27T12:47:13;10.70;99.90
32698;DHT22;19087;51.062;3.754;2024-01-27T12:49:40;10.50;99.90
32698;DHT22;19087;51.062;3.754;2024-01-27T12:52:06;10.80;99.90
32698;DHT22;19087;51.062;3.754;2024-01-27T12:54:32;10.70;99.90
32698;DHT22;19087;51.062;3.754;2024-01-27T12:56:58;10.50;99.90
32698;DHT22;19087;51.062;3.754;2024-01-27T12:59:26;10.70;99.90
32698;DHT22;19087;51.062;3.754;2024-01-27T13:01:52;10.90;99.90
32698;DHT22;19087;51.062;3.754;2024-01-27T13:04:18;11.10;99.90
32698;DHT22;19087;51.062;3.754;2024-01-27T13:06:44;11.20;99.90
32698;DHT22;19087;51.062;3.754;2024-01-27T13:09:11;11.20;99.90
32698;DHT22;19087;51.062;3.754;2024-01-27T13:11:37;11.00;99.90
32698;DHT22;19087;51.062;3.754;2024-01-27T13:14:03;11.00;99.90
32698;DHT22;19087;51.062;3.754;2024-01-27T13:16:30;10.50;99.90
32698;DHT22;19087;51.062;3.754;2024-01-27T13:18:56;10.20;99.90
32698;DHT22;19087;51.062;3.754;2024-01-27T13:21:22;10.00;99.90
32698;DHT22;19087;51.062;3.754;2024-01-27T13:23:49;10.20;99.90
32698;DHT22;19087;51.062;3.754;2024-01-27T13:26:15;10.30;99.90
32698;DHT22;19087;51.062;3.754;2024-01-27T13:28:41;10.50;99.90
32698;DHT22;19087;51.062;3.754;2024-01-27T13:31:12;10.70;99.90
32698;DHT22;19087;51.062;3.754;2024-01-27T13:33:45;10.60;99.90
32698;DHT22;19087;51.062;3.754;2024-01-27T13:36:14;10.80;99.90
32698;DHT22;19087;51.062;3.754;2024-01-27T13:38:40;10.80;99.90
32698;DHT22;19087;51.062;3.754;2024-01-27T13:41:21;11.00;99.90
32698;DHT22;19087;51.062;3.754;2024-01-27T13:43:48;11.00;99.90
32698;DHT22;19087;51.062;3.754;2024-01-27T13:46:16;11.10;99.90
32698;DHT22;19087;51.062;3.754;2024-01-27T13:48:42;11.50;99.90
32698;DHT22;19087;51.062;3.754;2024-01-27T13:51:09;11.40;99.90
32698;DHT22;19087;51.062;3.754;2024-01-27T13:53:41;11.60;99.90
32698;DHT22;19087;51.062;3.754;2024-01-27T13:56:07;11.60;99.60
32698;DHT22;19087;51.062;3.754;2024-01-27T13:58:36;11.20;99.40
32698;DHT22;19087;51.062;3.754;2024-01-27T14:01:06;11.10;99.90
32698;DHT22;19087;51.062;3.754;2024-01-27T14:03:32;11.30;99.90
32698;DHT22;19087;51.062;3.754;2024-01-27T14:06:00;11.10;99.90
32698;DHT22;19087;51.062;3.754;2024-01-27T14:08:26;10.80;99.90
32698;DHT22;19087;51.062;3.754;2024-01-27T14:10:52;10.60;99.90
32698;DHT22;19087;51.062;3.754;2024-01-27T14:13:18;10.40;99.90
32698;DHT22;19087;51.062;3.754;2024-01-27T14:15:44;10.10;99.90
32698;DHT22;19087;51.062;3.754;2024-01-27T14:18:10;9.80;99.90
32698;DHT22;19087;51.062;3.754;2024-01-27T14:20:39;9.60;99.90
32698;DHT22;19087;51.062;3.754;2024-01-27T14:23:06;9.90;99.90
32698;DHT22;19087;51.062;3.754;2024-01-27T14:25:35;10.10;99.90
32698;DHT22;19087;51.062;3.754;2024-01-27T14:28:01;10.20;99.90
32698;DHT22;19087;51.062;3.754;2024-01-27T14:30:27;10.20;99.90
32698;DHT22;19087;51.062;3.754;2024-01-27T14:32:52;9.90;99.90
32698;DHT22;19087;51.062;3.754;2024-01-27T14:35:19;9.80;99.90
32698;DHT22;19087;51.062;3.754;2024-01-27T14:37:45;9.80;99.90
32698;DHT22;19087;51.062;3.754;2024-01-27T14:40:11;9.70;99.90
32698;DHT22;19087;51.062;3.754;2024-01-27T14:42:40;9.40;99.90
32698;DHT22;19087;51.062;3.754;2024-01-27T14:45:07;9.20;99.90
32698;DHT22;19087;51.062;3.754;2024-01-27T14:47:34;9.10;99.90
32698;DHT22;19087;51.062;3.754;2024-01-27T14:50:00;9.10;99.90
32698;DHT22;19087;51.062;3.754;2024-01-27T14:52:26;9.10;99.90
32698;DHT22;19087;51.062;3.754;2024-01-27T14:54:52;9.10;99.90
32698;DHT22;19087;51.062;3.754;2024-01-27T14:57:17;9.10;99.90
32698;DHT22;19087;51.062;3.754;2024-01-27T14:59:45;9.10;99.90
32698;DHT22;19087;51.062;3.754;2024-01-27T15:02:16;9.10;99.90
32698;DHT22;19087;51.062;3.754;2024-01-27T15:04:43;9.10;99.90
32698;DHT22;19087;51.062;3.754;2024-01-27T15:07:16;9.10;99.90
32698;DHT22;19087;51.062;3.754;2024-01-27T15:09:47;8.90;99.90
32698;DHT22;19087;51.062;3.754;2024-01-27T15:12:13;8.80;99.90
32698;DHT22;19087;51.062;3.754;2024-01-27T15:14:39;8.80;99.90
32698;DHT22;19087;51.062;3.754;2024-01-27T15:17:06;8.90;99.90
32698;DHT22;19087;51.062;3.754;2024-01-27T15:19:33;8.90;99.90
32698;DHT22;19087;51.062;3.754;2024-01-27T15:21:59;8.80;99.90
32698;DHT22;19087;51.062;3.754;2024-01-27T15:24:28;8.70;99.90
32698;DHT22;19087;51.062;3.754;2024-01-27T15:26:54;8.70;99.90
32698;DHT22;19087;51.062;3.754;2024-01-27T15:29:20;8.70;99.90
32698;DHT22;19087;51.062;3.754;2024-01-27T15:31:46;8.60;99.90
32698;DHT22;19087;51.062;3.754;2024-01-27T15:34:12;8.60;99.90
32698;DHT22;19087;51.062;3.754;2024-01-27T15:36:39;8.60;99.90
32698;DHT22;19087;51.062;3.754;2024-01-27T15:39:05;8.60;99.90
32698;DHT22;19087;51.062;3.754;2024-01-27T15:41:34;8.60;99.90
32698;DHT22;19087;51.062;3.754;2024-01-27T15:44:00;8.70;99.90
32698;DHT22;19087;51.062;3.754;2024-01-27T15:46:26;8.70;99.90
32698;DHT22;19087;51.062;3.754;2024-01-27T15:48:52;8.60;99.90